sensor_id;sensor_type;location;lat;lon;timestamp;P1;durP1;ratioP1;P2;durP2;ratioP2
20772;SDS011;10546;50.674;4.616;2022-07-09T06:28:17;8.05;;;4.15;;
20772;SDS011;10546;50.674;4.616;2022-07-09T06:30:44;10.70;;;5.00;;
20772;SDS011;10546;50.674;4.616;2022-07-09T06:33:10;12.73;;;4.72;;
20772;SDS011;10546;50.674;4.616;2022-07-09T06:35:35;7.82;;;4.15;;
20772;SDS011;10546;50.674;4.616;2022-07-09T06:38:01;6.78;;;4.50;;
20772;SDS011;10546;50.674;4.616;2022-07-09T06:40:26;13.02;;;6.63;;
20772;SDS011;10546;50.674;4.616;2022-07-09T06:42:52;13.57;;;5.90;;
20772;SDS011;10546;50.674;4.616;2022-07-09T06:45:18;10.70;;;5.28;;
20772;SDS011;10546;50.674;4.616;2022-07-09T06:47:43;9.85;;;4.47;;
20772;SDS011;10546;50.674;4.616;2022-07-09T06:50:09;7.35;;;4.18;;
20772;SDS011;10546;50.674;4.616;2022-07-09T06:52:35;8.13;;;3.72;;
20772;SDS011;10546;50.674;4.616;2022-07-09T06:55:01;7.88;;;3.08;;
20772;SDS011;10546;50.674;4.616;2022-07-09T06:57:26;7.60;;;3.17;;
20772;SDS011;10546;50.674;4.616;2022-07-09T06:59:53;5.20;;;2.80;;
20772;SDS011;10546;50.674;4.616;2022-07-09T07:02:19;7.07;;;3.30;;
20772;SDS011;10546;50.674;4.616;2022-07-09T07:04:45;8.18;;;2.88;;
20772;SDS011;10546;50.674;4.616;2022-07-09T07:07:10;6.25;;;2.88;;
20772;SDS011;10546;50.674;4.616;2022-07-09T07:09:36;6.68;;;3.00;;
20772;SDS011;10546;50.674;4.616;2022-07-09T07:12:01;4.68;;;2.40;;
20772;SDS011;10546;50.674;4.616;2022-07-09T07:14:27;7.65;;;2.60;;
20772;SDS011;10546;50.674;4.616;2022-07-09T07:16:53;5.75;;;3.22;;
20772;SDS011;10546;50.674;4.616;2022-07-09T07:19:19;6.35;;;3.40;;
20772;SDS011;10546;50.674;4.616;2022-07-09T07:21:47;6.15;;;2.60;;
20772;SDS011;10546;50.674;4.616;2022-07-09T07:24:13;4.55;;;2.80;;
20772;SDS011;10546;50.674;4.616;2022-07-09T07:26:39;8.90;;;2.78;;
20772;SDS011;10546;50.674;4.616;2022-07-09T07:29:05;5.47;;;2.40;;
20772;SDS011;10546;50.674;4.616;2022-07-09T07:31:30;7.35;;;2.30;;
20772;SDS011;10546;50.674;4.616;2022-07-09T07:33:56;4.80;;;2.78;;
20772;SDS011;10546;50.674;4.616;2022-07-09T07:36:23;5.97;;;2.60;;
20772;SDS011;10546;50.674;4.616;2022-07-09T07:38:48;5.45;;;2.40;;
20772;SDS011;10546;50.674;4.616;2022-07-09T07:41:15;6.15;;;2.40;;
20772;SDS011;10546;50.674;4.616;2022-07-09T07:43:42;7.18;;;2.20;;
20772;SDS011;10546;50.674;4.616;2022-07-09T07:46:08;8.25;;;3.35;;
20772;SDS011;10546;50.674;4.616;2022-07-09T07:48:33;4.68;;;1.90;;
20772;SDS011;10546;50.674;4.616;2022-07-09T07:51:02;8.52;;;6.13;;
20772;SDS011;10546;50.674;4.616;2022-07-09T07:53:32;9.52;;;2.30;;
20772;SDS011;10546;50.674;4.616;2022-07-09T07:56:05;5.95;;;2.10;;
20772;SDS011;10546;50.674;4.616;2022-07-09T07:58:39;5.10;;;2.40;;
20772;SDS011;10546;50.674;4.616;2022-07-09T08:01:05;6.55;;;2.40;;
20772;SDS011;10546;50.674;4.616;2022-07-09T08:03:31;6.47;;;2.58;;
20772;SDS011;10546;50.674;4.616;2022-07-09T08:05:57;5.13;;;2.40;;
20772;SDS011;10546;50.674;4.616;2022-07-09T08:08:22;5.18;;;2.20;;
20772;SDS011;10546;50.674;4.616;2022-07-09T08:10:48;6.18;;;2.03;;
20772;SDS011;10546;50.674;4.616;2022-07-09T08:13:15;8.00;;;2.60;;
20772;SDS011;10546;50.674;4.616;2022-07-09T08:15:41;5.28;;;2.38;;
20772;SDS011;10546;50.674;4.616;2022-07-09T08:18:07;5.95;;;2.72;;
20772;SDS011;10546;50.674;4.616;2022-07-09T08:20:37;3.95;;;2.00;;
20772;SDS011;10546;50.674;4.616;2022-07-09T08:23:04;2.80;;;1.77;;
20772;SDS011;10546;50.674;4.616;2022-07-09T08:25:29;5.68;;;2.22;;
20772;SDS011;10546;50.674;4.616;2022-07-09T08:27:55;7.13;;;2.20;;
20772;SDS011;10546;50.674;4.616;2022-07-09T08:30:20;9.00;;;2.58;;
20772;SDS011;10546;50.674;4.616;2022-07-09T08:32:46;4.20;;;2.45;;
20772;SDS011;10546;50.674;4.616;2022-07-09T08:35:12;4.95;;;1.80;;
20772;SDS011;10546;50.674;4.616;2022-07-09T08:37:38;8.30;;;2.33;;
20772;SDS011;10546;50.674;4.616;2022-07-09T08:40:03;6.85;;;2.45;;
20772;SDS011;10546;50.674;4.616;2022-07-09T08:42:30;2.55;;;1.60;;
20772;SDS011;10546;50.674;4.616;2022-07-09T08:44:56;3.70;;;2.00;;
20772;SDS011;10546;50.674;4.616;2022-07-09T08:47:23;3.65;;;1.90;;
20772;SDS011;10546;50.674;4.616;2022-07-09T08:49:50;7.03;;;2.45;;
20772;SDS011;10546;50.674;4.616;2022-07-09T08:52:21;5.03;;;2.10;;
20772;SDS011;10546;50.674;4.616;2022-07-09T08:54:48;4.18;;;1.95;;
20772;SDS011;10546;50.674;4.616;2022-07-09T08:57:14;4.50;;;1.63;;
20772;SDS011;10546;50.674;4.616;2022-07-09T08:59:40;5.85;;;1.88;;
20772;SDS011;10546;50.674;4.616;2022-07-09T09:02:06;4.65;;;1.60;;
20772;SDS011;10546;50.674;4.616;2022-07-09T09:04:34;3.90;;;1.80;;
20772;SDS011;10546;50.674;4.616;2022-07-09T09:07:11;4.55;;;1.90;;
20772;SDS011;10546;50.674;4.616;2022-07-09T09:09:38;5.35;;;2.20;;
20772;SDS011;10546;50.674;4.616;2022-07-09T09:12:03;7.20;;;2.15;;
20772;SDS011;10546;50.674;4.616;2022-07-09T09:14:29;4.20;;;2.15;;
20772;SDS011;10546;50.674;4.616;2022-07-09T09:17:02;4.15;;;2.30;;
20772;SDS011;10546;50.674;4.616;2022-07-09T09:19:34;4.32;;;2.33;;
20772;SDS011;10546;50.674;4.616;2022-07-09T09:22:00;5.57;;;2.47;;
20772;SDS011;10546;50.674;4.616;2022-07-09T09:24:26;8.63;;;2.60;;
20772;SDS011;10546;50.674;4.616;2022-07-09T09:27:03;7.13;;;2.55;;
20772;SDS011;10546;50.674;4.616;2022-07-09T09:29:29;6.07;;;2.67;;
20772;SDS011;10546;50.674;4.616;2022-07-09T09:31:55;7.15;;;2.80;;
20772;SDS011;10546;50.674;4.616;2022-07-09T09:34:21;6.03;;;3.00;;
20772;SDS011;10546;50.674;4.616;2022-07-09T09:36:48;5.40;;;3.20;;
20772;SDS011;10546;50.674;4.616;2022-07-09T09:39:26;8.50;;;3.03;;
20772;SDS011;10546;50.674;4.616;2022-07-09T09:41:54;7.47;;;3.03;;
20772;SDS011;10546;50.674;4.616;2022-07-09T09:44:25;8.13;;;3.17;;
20772;SDS011;10546;50.674;4.616;2022-07-09T09:46:54;8.05;;;2.50;;
20772;SDS011;10546;50.674;4.616;2022-07-09T09:49:21;7.10;;;2.40;;
20772;SDS011;10546;50.674;4.616;2022-07-09T09:54:13;5.47;;;2.03;;
20772;SDS011;10546;50.674;4.616;2022-07-09T09:56:40;5.88;;;2.33;;
20772;SDS011;10546;50.674;4.616;2022-07-09T09:59:06;2.97;;;1.80;;
20772;SDS011;10546;50.674;4.616;2022-07-09T10:01:32;3.65;;;1.75;;
20772;SDS011;10546;50.674;4.616;2022-07-09T10:03:58;3.53;;;2.00;;
20772;SDS011;10546;50.674;4.616;2022-07-09T10:06:24;4.35;;;2.20;;
20772;SDS011;10546;50.674;4.616;2022-07-09T10:08:51;6.78;;;2.20;;
20772;SDS011;10546;50.674;4.616;2022-07-09T10:11:18;7.68;;;2.50;;
20772;SDS011;10546;50.674;4.616;2022-07-09T10:13:54;4.90;;;2.05;;
20772;SDS011;10546;50.674;4.616;2022-07-09T10:16:33;3.47;;;2.25;;
20772;SDS011;10546;50.674;4.616;2022-07-09T10:19:03;5.32;;;2.30;;
20772;SDS011;10546;50.674;4.616;2022-07-09T10:24:05;4.32;;;2.50;;
20772;SDS011;10546;50.674;4.616;2022-07-09T10:31:48;7.43;;;2.85;;
20772;SDS011;10546;50.674;4.616;2022-07-09T10:34:28;6.28;;;3.25;;
20772;SDS011;10546;50.674;4.616;2022-07-09T10:36:59;4.82;;;2.92;;
20772;SDS011;10546;50.674;4.616;2022-07-09T10:39:26;5.40;;;3.00;;
20772;SDS011;10546;50.674;4.616;2022-07-09T10:42:02;4.35;;;3.15;;
20772;SDS011;10546;50.674;4.616;2022-07-09T10:44:36;4.03;;;2.83;;
20772;SDS011;10546;50.674;4.616;2022-07-09T10:47:03;8.00;;;2.90;;
20772;SDS011;10546;50.674;4.616;2022-07-09T10:49:30;7.15;;;3.22;;
20772;SDS011;10546;50.674;4.616;2022-07-09T10:51:58;6.60;;;3.25;;
20772;SDS011;10546;50.674;4.616;2022-07-09T10:54:25;8.32;;;3.90;;
20772;SDS011;10546;50.674;4.616;2022-07-09T10:56:51;5.60;;;3.40;;
20772;SDS011;10546;50.674;4.616;2022-07-09T10:59:20;9.02;;;4.10;;
20772;SDS011;10546;50.674;4.616;2022-07-09T11:01:46;8.73;;;4.00;;
20772;SDS011;10546;50.674;4.616;2022-07-09T11:04:23;9.85;;;4.47;;
20772;SDS011;10546;50.674;4.616;2022-07-09T11:06:52;6.60;;;4.30;;
20772;SDS011;10546;50.674;4.616;2022-07-09T11:09:18;7.20;;;5.18;;
20772;SDS011;10546;50.674;4.616;2022-07-09T11:11:45;7.57;;;5.18;;
20772;SDS011;10546;50.674;4.616;2022-07-09T11:14:12;8.45;;;4.90;;
20772;SDS011;10546;50.674;4.616;2022-07-09T11:16:39;7.63;;;5.28;;
20772;SDS011;10546;50.674;4.616;2022-07-09T11:19:12;13.48;;;6.38;;
20772;SDS011;10546;50.674;4.616;2022-07-09T11:21:39;15.77;;;9.00;;
20772;SDS011;10546;50.674;4.616;2022-07-09T11:24:12;16.23;;;10.98;;
20772;SDS011;10546;50.674;4.616;2022-07-09T11:26:42;15.50;;;12.25;;
20772;SDS011;10546;50.674;4.616;2022-07-09T11:29:08;21.08;;;13.20;;
20772;SDS011;10546;50.674;4.616;2022-07-09T11:31:45;22.02;;;16.02;;
20772;SDS011;10546;50.674;4.616;2022-07-09T11:34:20;18.50;;;13.65;;
20772;SDS011;10546;50.674;4.616;2022-07-09T11:36:46;18.83;;;13.15;;
20772;SDS011;10546;50.674;4.616;2022-07-09T11:39:28;16.67;;;13.73;;
20772;SDS011;10546;50.674;4.616;2022-07-09T11:41:59;14.80;;;12.48;;
20772;SDS011;10546;50.674;4.616;2022-07-09T11:44:29;19.48;;;13.65;;
20772;SDS011;10546;50.674;4.616;2022-07-09T11:47:02;19.55;;;13.32;;
20772;SDS011;10546;50.674;4.616;2022-07-09T11:49:33;13.18;;;10.68;;
20772;SDS011;10546;50.674;4.616;2022-07-09T11:52:00;11.05;;;9.40;;
20772;SDS011;10546;50.674;4.616;2022-07-09T11:54:27;16.05;;;10.30;;
20772;SDS011;10546;50.674;4.616;2022-07-09T11:56:53;11.25;;;7.43;;
20772;SDS011;10546;50.674;4.616;2022-07-09T11:59:26;11.32;;;6.70;;
20772;SDS011;10546;50.674;4.616;2022-07-09T12:01:53;14.90;;;8.48;;
20772;SDS011;10546;50.674;4.616;2022-07-09T12:04:20;14.50;;;9.68;;
20772;SDS011;10546;50.674;4.616;2022-07-09T12:06:49;11.80;;;9.35;;
20772;SDS011;10546;50.674;4.616;2022-07-09T12:09:26;16.27;;;8.95;;
20772;SDS011;10546;50.674;4.616;2022-07-09T12:11:54;15.63;;;9.43;;
20772;SDS011;10546;50.674;4.616;2022-07-09T12:14:19;13.10;;;8.70;;
20772;SDS011;10546;50.674;4.616;2022-07-09T12:16:45;11.35;;;6.40;;
20772;SDS011;10546;50.674;4.616;2022-07-09T12:19:10;10.27;;;4.45;;
20772;SDS011;10546;50.674;4.616;2022-07-09T12:21:36;5.55;;;3.58;;
20772;SDS011;10546;50.674;4.616;2022-07-09T12:24:02;6.35;;;3.00;;
20772;SDS011;10546;50.674;4.616;2022-07-09T12:26:28;4.05;;;2.63;;
20772;SDS011;10546;50.674;4.616;2022-07-09T12:28:55;4.90;;;2.50;;
20772;SDS011;10546;50.674;4.616;2022-07-09T12:31:22;3.30;;;2.20;;
20772;SDS011;10546;50.674;4.616;2022-07-09T12:33:47;5.63;;;2.55;;
20772;SDS011;10546;50.674;4.616;2022-07-09T12:36:14;6.25;;;2.20;;
20772;SDS011;10546;50.674;4.616;2022-07-09T12:38:46;3.60;;;1.90;;
20772;SDS011;10546;50.674;4.616;2022-07-09T12:41:13;2.80;;;1.80;;
20772;SDS011;10546;50.674;4.616;2022-07-09T12:43:39;3.90;;;2.10;;
20772;SDS011;10546;50.674;4.616;2022-07-09T12:46:04;3.13;;;2.10;;
20772;SDS011;10546;50.674;4.616;2022-07-09T12:48:31;4.47;;;2.03;;
20772;SDS011;10546;50.674;4.616;2022-07-09T12:50:57;2.80;;;1.80;;
20772;SDS011;10546;50.674;4.616;2022-07-09T12:53:22;3.20;;;1.67;;
20772;SDS011;10546;50.674;4.616;2022-07-09T12:55:48;2.55;;;1.48;;
20772;SDS011;10546;50.674;4.616;2022-07-09T12:58:15;4.15;;;1.50;;
20772;SDS011;10546;50.674;4.616;2022-07-09T13:00:41;3.70;;;1.50;;
20772;SDS011;10546;50.674;4.616;2022-07-09T13:03:07;3.72;;;1.30;;
20772;SDS011;10546;50.674;4.616;2022-07-09T13:05:32;2.67;;;1.48;;
20772;SDS011;10546;50.674;4.616;2022-07-09T13:07:58;2.92;;;1.65;;
20772;SDS011;10546;50.674;4.616;2022-07-09T13:10:23;5.93;;;1.40;;
20772;SDS011;10546;50.674;4.616;2022-07-09T13:12:49;4.13;;;1.30;;
20772;SDS011;10546;50.674;4.616;2022-07-09T13:15:15;6.78;;;1.88;;
20772;SDS011;10546;50.674;4.616;2022-07-09T13:17:46;5.10;;;1.50;;
20772;SDS011;10546;50.674;4.616;2022-07-09T13:20:12;5.65;;;1.85;;
20772;SDS011;10546;50.674;4.616;2022-07-09T13:22:38;2.88;;;1.40;;
20772;SDS011;10546;50.674;4.616;2022-07-09T13:25:04;2.60;;;1.70;;
20772;SDS011;10546;50.674;4.616;2022-07-09T13:27:30;5.30;;;3.38;;
20772;SDS011;10546;50.674;4.616;2022-07-09T13:29:56;6.15;;;2.30;;
20772;SDS011;10546;50.674;4.616;2022-07-09T13:32:22;8.18;;;4.53;;
20772;SDS011;10546;50.674;4.616;2022-07-09T13:34:48;7.10;;;4.18;;
20772;SDS011;10546;50.674;4.616;2022-07-09T13:37:17;5.43;;;3.80;;
20772;SDS011;10546;50.674;4.616;2022-07-09T13:39:43;7.78;;;4.15;;
20772;SDS011;10546;50.674;4.616;2022-07-09T13:42:08;11.55;;;7.93;;
20772;SDS011;10546;50.674;4.616;2022-07-09T13:44:34;7.13;;;3.90;;
20772;SDS011;10546;50.674;4.616;2022-07-09T13:47:00;3.83;;;1.88;;
20772;SDS011;10546;50.674;4.616;2022-07-09T13:49:25;3.78;;;2.30;;
20772;SDS011;10546;50.674;4.616;2022-07-09T13:51:51;3.00;;;1.80;;
20772;SDS011;10546;50.674;4.616;2022-07-09T13:54:17;3.85;;;1.83;;
20772;SDS011;10546;50.674;4.616;2022-07-09T13:56:42;4.55;;;2.10;;
20772;SDS011;10546;50.674;4.616;2022-07-09T13:59:08;2.95;;;1.80;;
20772;SDS011;10546;50.674;4.616;2022-07-09T14:01:34;2.03;;;1.60;;
20772;SDS011;10546;50.674;4.616;2022-07-09T14:04:00;2.90;;;1.95;;
20772;SDS011;10546;50.674;4.616;2022-07-09T14:06:25;5.55;;;1.13;;
20772;SDS011;10546;50.674;4.616;2022-07-09T14:08:51;3.00;;;1.02;;
20772;SDS011;10546;50.674;4.616;2022-07-09T14:11:17;5.07;;;3.40;;
20772;SDS011;10546;50.674;4.616;2022-07-09T14:13:42;12.57;;;7.57;;
20772;SDS011;10546;50.674;4.616;2022-07-09T14:16:08;2.22;;;1.63;;
20772;SDS011;10546;50.674;4.616;2022-07-09T14:18:34;4.07;;;2.05;;
20772;SDS011;10546;50.674;4.616;2022-07-09T14:21:00;6.53;;;4.65;;
20772;SDS011;10546;50.674;4.616;2022-07-09T14:23:26;7.55;;;2.40;;
20772;SDS011;10546;50.674;4.616;2022-07-09T14:25:51;4.55;;;2.97;;
20772;SDS011;10546;50.674;4.616;2022-07-09T14:28:17;10.80;;;7.15;;
20772;SDS011;10546;50.674;4.616;2022-07-09T14:30:43;6.03;;;4.03;;
20772;SDS011;10546;50.674;4.616;2022-07-09T14:33:10;9.45;;;5.30;;
20772;SDS011;10546;50.674;4.616;2022-07-09T14:35:35;5.15;;;3.60;;
20772;SDS011;10546;50.674;4.616;2022-07-09T14:38:01;9.40;;;4.18;;
20772;SDS011;10546;50.674;4.616;2022-07-09T14:40:27;7.22;;;3.00;;
20772;SDS011;10546;50.674;4.616;2022-07-09T14:42:53;2.30;;;1.20;;
20772;SDS011;10546;50.674;4.616;2022-07-09T14:45:19;3.45;;;1.70;;
20772;SDS011;10546;50.674;4.616;2022-07-09T14:47:48;4.55;;;1.80;;
20772;SDS011;10546;50.674;4.616;2022-07-09T14:50:14;5.03;;;3.00;;
20772;SDS011;10546;50.674;4.616;2022-07-09T14:52:43;7.93;;;3.40;;
20772;SDS011;10546;50.674;4.616;2022-07-09T14:55:13;7.20;;;4.25;;
20772;SDS011;10546;50.674;4.616;2022-07-09T14:57:38;8.00;;;5.85;;
20772;SDS011;10546;50.674;4.616;2022-07-09T15:00:05;6.97;;;5.55;;
20772;SDS011;10546;50.674;4.616;2022-07-09T15:02:31;2.55;;;1.17;;
20772;SDS011;10546;50.674;4.616;2022-07-09T15:04:58;2.08;;;1.20;;
20772;SDS011;10546;50.674;4.616;2022-07-09T15:07:23;7.82;;;3.95;;
20772;SDS011;10546;50.674;4.616;2022-07-09T15:09:49;8.45;;;4.18;;
20772;SDS011;10546;50.674;4.616;2022-07-09T15:12:15;6.78;;;3.83;;
20772;SDS011;10546;50.674;4.616;2022-07-09T15:14:40;3.83;;;1.90;;
20772;SDS011;10546;50.674;4.616;2022-07-09T15:17:06;4.63;;;1.65;;
20772;SDS011;10546;50.674;4.616;2022-07-09T15:19:32;4.40;;;1.50;;
20772;SDS011;10546;50.674;4.616;2022-07-09T15:22:04;5.97;;;2.03;;
20772;SDS011;10546;50.674;4.616;2022-07-09T15:24:30;3.35;;;1.80;;
20772;SDS011;10546;50.674;4.616;2022-07-09T15:26:55;3.70;;;1.20;;
20772;SDS011;10546;50.674;4.616;2022-07-09T15:29:21;3.50;;;1.40;;
20772;SDS011;10546;50.674;4.616;2022-07-09T15:31:47;5.18;;;1.80;;
20772;SDS011;10546;50.674;4.616;2022-07-09T15:34:13;5.78;;;1.95;;
20772;SDS011;10546;50.674;4.616;2022-07-09T15:36:38;4.00;;;1.60;;
20772;SDS011;10546;50.674;4.616;2022-07-09T15:39:05;4.00;;;1.50;;
20772;SDS011;10546;50.674;4.616;2022-07-09T15:41:30;6.68;;;2.53;;
20772;SDS011;10546;50.674;4.616;2022-07-09T15:43:58;4.80;;;2.80;;
20772;SDS011;10546;50.674;4.616;2022-07-09T15:46:26;8.50;;;2.00;;
20772;SDS011;10546;50.674;4.616;2022-07-09T15:48:52;5.18;;;1.40;;
20772;SDS011;10546;50.674;4.616;2022-07-09T15:51:18;2.33;;;1.13;;
20772;SDS011;10546;50.674;4.616;2022-07-09T15:53:43;11.45;;;4.15;;
20772;SDS011;10546;50.674;4.616;2022-07-09T15:56:09;6.97;;;1.92;;
20772;SDS011;10546;50.674;4.616;2022-07-09T15:58:35;5.38;;;1.20;;
20772;SDS011;10546;50.674;4.616;2022-07-09T16:01:00;3.22;;;1.10;;
20772;SDS011;10546;50.674;4.616;2022-07-09T16:03:29;3.58;;;1.30;;
20772;SDS011;10546;50.674;4.616;2022-07-09T16:05:55;5.72;;;1.40;;
20772;SDS011;10546;50.674;4.616;2022-07-09T16:08:20;6.75;;;2.72;;
20772;SDS011;10546;50.674;4.616;2022-07-09T16:10:46;4.63;;;1.33;;
20772;SDS011;10546;50.674;4.616;2022-07-09T16:13:11;3.15;;;1.35;;
20772;SDS011;10546;50.674;4.616;2022-07-09T16:15:37;9.75;;;1.60;;
20772;SDS011;10546;50.674;4.616;2022-07-09T16:18:03;4.53;;;1.30;;
20772;SDS011;10546;50.674;4.616;2022-07-09T16:20:29;8.23;;;1.40;;
20772;SDS011;10546;50.674;4.616;2022-07-09T16:22:54;3.95;;;1.40;;
20772;SDS011;10546;50.674;4.616;2022-07-09T16:25:25;2.78;;;1.38;;
20772;SDS011;10546;50.674;4.616;2022-07-09T16:27:50;3.92;;;1.35;;
20772;SDS011;10546;50.674;4.616;2022-07-09T16:30:16;4.40;;;1.60;;
20772;SDS011;10546;50.674;4.616;2022-07-09T16:32:42;9.57;;;1.83;;
20772;SDS011;10546;50.674;4.616;2022-07-09T16:35:08;5.13;;;1.60;;
20772;SDS011;10546;50.674;4.616;2022-07-09T16:37:34;5.45;;;1.30;;
20772;SDS011;10546;50.674;4.616;2022-07-09T16:40:00;7.30;;;1.45;;
20772;SDS011;10546;50.674;4.616;2022-07-09T16:42:27;6.85;;;1.77;;
20772;SDS011;10546;50.674;4.616;2022-07-09T16:44:53;6.93;;;2.38;;
20772;SDS011;10546;50.674;4.616;2022-07-09T16:47:20;6.63;;;1.42;;
20772;SDS011;10546;50.674;4.616;2022-07-09T16:49:46;7.03;;;1.70;;
20772;SDS011;10546;50.674;4.616;2022-07-09T16:52:17;7.43;;;1.70;;
20772;SDS011;10546;50.674;4.616;2022-07-09T16:54:45;5.30;;;1.60;;
20772;SDS011;10546;50.674;4.616;2022-07-09T16:57:11;6.72;;;1.60;;
20772;SDS011;10546;50.674;4.616;2022-07-09T16:59:37;6.63;;;1.52;;
20772;SDS011;10546;50.674;4.616;2022-07-09T17:02:04;5.55;;;1.73;;
20772;SDS011;10546;50.674;4.616;2022-07-09T17:04:31;4.50;;;1.73;;
20772;SDS011;10546;50.674;4.616;2022-07-09T17:07:03;7.25;;;1.73;;
20772;SDS011;10546;50.674;4.616;2022-07-09T17:09:30;5.30;;;1.85;;
20772;SDS011;10546;50.674;4.616;2022-07-09T17:11:55;6.72;;;1.73;;
20772;SDS011;10546;50.674;4.616;2022-07-09T17:14:26;9.50;;;1.77;;
20772;SDS011;10546;50.674;4.616;2022-07-09T17:16:51;8.02;;;1.60;;
20772;SDS011;10546;50.674;4.616;2022-07-09T17:19:17;10.50;;;1.70;;
20772;SDS011;10546;50.674;4.616;2022-07-09T17:21:43;6.82;;;1.88;;
20772;SDS011;10546;50.674;4.616;2022-07-09T17:24:08;9.07;;;1.95;;
20772;SDS011;10546;50.674;4.616;2022-07-09T17:26:39;7.95;;;1.90;;
20772;SDS011;10546;50.674;4.616;2022-07-09T17:29:08;9.35;;;1.90;;
20772;SDS011;10546;50.674;4.616;2022-07-09T17:31:33;8.40;;;2.15;;
20772;SDS011;10546;50.674;4.616;2022-07-09T17:34:03;10.32;;;2.03;;
20772;SDS011;10546;50.674;4.616;2022-07-09T17:36:38;6.00;;;1.83;;
20772;SDS011;10546;50.674;4.616;2022-07-09T17:39:07;7.75;;;1.88;;
20772;SDS011;10546;50.674;4.616;2022-07-09T17:41:38;8.52;;;2.00;;
20772;SDS011;10546;50.674;4.616;2022-07-09T17:44:36;9.13;;;1.98;;
20772;SDS011;10546;50.674;4.616;2022-07-09T17:47:02;4.78;;;1.90;;
20772;SDS011;10546;50.674;4.616;2022-07-09T17:49:34;7.95;;;2.10;;
20772;SDS011;10546;50.674;4.616;2022-07-09T17:52:03;10.63;;;1.90;;
20772;SDS011;10546;50.674;4.616;2022-07-09T17:54:31;8.68;;;2.38;;
20772;SDS011;10546;50.674;4.616;2022-07-09T17:57:19;4.38;;;1.83;;
20772;SDS011;10546;50.674;4.616;2022-07-09T17:59:49;7.88;;;2.42;;
20772;SDS011;10546;50.674;4.616;2022-07-09T18:02:18;10.88;;;2.63;;
20772;SDS011;10546;50.674;4.616;2022-07-09T18:04:45;5.57;;;2.40;;
20772;SDS011;10546;50.674;4.616;2022-07-09T18:07:10;6.90;;;2.30;;
20772;SDS011;10546;50.674;4.616;2022-07-09T18:09:38;6.30;;;2.50;;
20772;SDS011;10546;50.674;4.616;2022-07-09T18:12:09;7.10;;;2.45;;
20772;SDS011;10546;50.674;4.616;2022-07-09T18:14:36;5.50;;;2.20;;
20772;SDS011;10546;50.674;4.616;2022-07-09T18:17:08;9.90;;;2.58;;
20772;SDS011;10546;50.674;4.616;2022-07-09T18:19:45;9.52;;;2.70;;
20772;SDS011;10546;50.674;4.616;2022-07-09T18:22:14;7.07;;;2.72;;
20772;SDS011;10546;50.674;4.616;2022-07-09T18:25:01;8.40;;;2.80;;
20772;SDS011;10546;50.674;4.616;2022-07-09T18:27:29;11.48;;;3.25;;
20772;SDS011;10546;50.674;4.616;2022-07-09T18:29:56;12.57;;;2.83;;
20772;SDS011;10546;50.674;4.616;2022-07-09T18:32:24;11.52;;;3.05;;
20772;SDS011;10546;50.674;4.616;2022-07-09T18:34:50;10.90;;;2.95;;
20772;SDS011;10546;50.674;4.616;2022-07-09T18:37:23;11.45;;;3.20;;
20772;SDS011;10546;50.674;4.616;2022-07-09T18:39:50;8.63;;;3.10;;
20772;SDS011;10546;50.674;4.616;2022-07-09T18:42:19;8.43;;;3.00;;
20772;SDS011;10546;50.674;4.616;2022-07-09T18:44:46;11.13;;;3.13;;
20772;SDS011;10546;50.674;4.616;2022-07-09T18:47:15;7.43;;;3.00;;
20772;SDS011;10546;50.674;4.616;2022-07-09T18:49:48;9.20;;;3.05;;
20772;SDS011;10546;50.674;4.616;2022-07-09T18:52:15;12.32;;;2.80;;
20772;SDS011;10546;50.674;4.616;2022-07-09T18:54:42;11.98;;;2.70;;
20772;SDS011;10546;50.674;4.616;2022-07-09T18:57:07;10.05;;;2.35;;
20772;SDS011;10546;50.674;4.616;2022-07-09T18:59:43;9.73;;;2.50;;
20772;SDS011;10546;50.674;4.616;2022-07-09T19:02:12;10.48;;;2.47;;
20772;SDS011;10546;50.674;4.616;2022-07-09T19:04:38;5.93;;;2.28;;
20772;SDS011;10546;50.674;4.616;2022-07-09T19:07:06;9.77;;;2.60;;
20772;SDS011;10546;50.674;4.616;2022-07-09T19:09:33;8.40;;;2.28;;
20772;SDS011;10546;50.674;4.616;2022-07-09T19:12:11;7.95;;;2.25;;
20772;SDS011;10546;50.674;4.616;2022-07-09T19:14:44;9.10;;;2.85;;
20772;SDS011;10546;50.674;4.616;2022-07-09T19:17:14;5.63;;;2.00;;
20772;SDS011;10546;50.674;4.616;2022-07-09T19:19:44;6.03;;;2.08;;
20772;SDS011;10546;50.674;4.616;2022-07-09T19:22:16;8.30;;;2.22;;
20772;SDS011;10546;50.674;4.616;2022-07-09T19:24:47;5.55;;;1.90;;
20772;SDS011;10546;50.674;4.616;2022-07-09T19:27:17;12.18;;;2.42;;
20772;SDS011;10546;50.674;4.616;2022-07-09T19:29:51;4.35;;;2.22;;
20772;SDS011;10546;50.674;4.616;2022-07-09T19:32:18;8.98;;;1.95;;
20772;SDS011;10546;50.674;4.616;2022-07-09T19:35:04;5.57;;;1.73;;
20772;SDS011;10546;50.674;4.616;2022-07-09T19:37:33;6.63;;;1.77;;
20772;SDS011;10546;50.674;4.616;2022-07-09T19:40:00;8.68;;;2.30;;
20772;SDS011;10546;50.674;4.616;2022-07-09T19:42:32;6.03;;;1.80;;
20772;SDS011;10546;50.674;4.616;2022-07-09T19:45:00;5.80;;;1.80;;
20772;SDS011;10546;50.674;4.616;2022-07-09T19:47:26;4.95;;;1.95;;
20772;SDS011;10546;50.674;4.616;2022-07-09T19:49:57;4.78;;;1.65;;
20772;SDS011;10546;50.674;4.616;2022-07-09T19:52:22;7.68;;;2.13;;
20772;SDS011;10546;50.674;4.616;2022-07-09T19:54:55;5.68;;;2.10;;
20772;SDS011;10546;50.674;4.616;2022-07-09T19:57:24;5.15;;;1.92;;
20772;SDS011;10546;50.674;4.616;2022-07-09T19:59:50;5.97;;;2.17;;
20772;SDS011;10546;50.674;4.616;2022-07-09T20:02:16;5.68;;;1.70;;
20772;SDS011;10546;50.674;4.616;2022-07-09T20:04:42;6.78;;;2.40;;
20772;SDS011;10546;50.674;4.616;2022-07-09T20:07:12;5.32;;;2.53;;
20772;SDS011;10546;50.674;4.616;2022-07-09T20:09:39;7.00;;;2.92;;
20772;SDS011;10546;50.674;4.616;2022-07-09T20:12:04;5.80;;;1.80;;
20772;SDS011;10546;50.674;4.616;2022-07-09T20:14:30;11.55;;;2.70;;
20772;SDS011;10546;50.674;4.616;2022-07-09T20:16:57;12.23;;;3.65;;
20772;SDS011;10546;50.674;4.616;2022-07-09T20:19:36;8.25;;;2.90;;
20772;SDS011;10546;50.674;4.616;2022-07-09T20:22:05;6.15;;;2.10;;
20772;SDS011;10546;50.674;4.616;2022-07-09T20:24:34;5.28;;;2.03;;
20772;SDS011;10546;50.674;4.616;2022-07-09T20:27:00;5.25;;;1.98;;
20772;SDS011;10546;50.674;4.616;2022-07-09T20:29:32;6.25;;;1.98;;
20772;SDS011;10546;50.674;4.616;2022-07-09T20:32:00;6.82;;;2.13;;
20772;SDS011;10546;50.674;4.616;2022-07-09T20:34:27;6.93;;;2.00;;
20772;SDS011;10546;50.674;4.616;2022-07-09T20:37:06;5.97;;;1.90;;
20772;SDS011;10546;50.674;4.616;2022-07-09T20:39:31;5.15;;;1.90;;
20772;SDS011;10546;50.674;4.616;2022-07-09T20:42:01;8.60;;;1.90;;
20772;SDS011;10546;50.674;4.616;2022-07-09T20:44:27;3.58;;;2.10;;
20772;SDS011;10546;50.674;4.616;2022-07-09T20:46:54;4.53;;;2.00;;
20772;SDS011;10546;50.674;4.616;2022-07-09T20:49:21;3.60;;;2.10;;
20772;SDS011;10546;50.674;4.616;2022-07-09T20:51:47;6.55;;;2.20;;
20772;SDS011;10546;50.674;4.616;2022-07-09T20:54:13;3.60;;;1.80;;
20772;SDS011;10546;50.674;4.616;2022-07-09T20:56:39;6.15;;;2.13;;
20772;SDS011;10546;50.674;4.616;2022-07-09T20:59:06;5.40;;;1.85;;
20772;SDS011;10546;50.674;4.616;2022-07-09T21:01:31;4.35;;;2.03;;
20772;SDS011;10546;50.674;4.616;2022-07-09T21:03:58;7.53;;;1.88;;
20772;SDS011;10546;50.674;4.616;2022-07-09T21:06:25;6.22;;;2.05;;
20772;SDS011;10546;50.674;4.616;2022-07-09T21:08:53;4.55;;;2.17;;
20772;SDS011;10546;50.674;4.616;2022-07-09T21:11:20;6.55;;;2.42;;
20772;SDS011;10546;50.674;4.616;2022-07-09T21:13:59;6.80;;;2.33;;
20772;SDS011;10546;50.674;4.616;2022-07-09T21:16:27;3.92;;;2.20;;
20772;SDS011;10546;50.674;4.616;2022-07-09T21:19:11;7.53;;;2.20;;
20772;SDS011;10546;50.674;4.616;2022-07-09T21:21:38;4.20;;;2.20;;
20772;SDS011;10546;50.674;4.616;2022-07-09T21:24:05;3.55;;;2.05;;
20772;SDS011;10546;50.674;4.616;2022-07-09T21:26:33;5.75;;;2.40;;